Time;durP1;ratioP1;P1;durP2;ratioP2;P2;SDS_P1;SDS_P2;PMS_P1;PMS_P2;Temp;Humidity;BMP_temperature;BMP_pressure;BME280_temperature;BME280_humidity;BME280_pressure;Samples;Min_cycle;Max_cycle;Signal;HPM_P1;HPM_P2
2023/06/28 00:02:25;;;;;;;0.90;0.90;;;22.80;64.70;;;23.30;nan;100787.47;4991442;28;20669;-68
2023/06/28 00:04:53;;;;;;;0.90;0.90;;;22.80;64.90;;;23.25;nan;100789.88;4985459;28;20644;-67
2023/06/28 00:07:20;;;;;;;4.93;1.23;;;22.70;65.30;;;23.22;nan;100795.56;4990508;28;21237;-67
2023/06/28 00:09:47;;;;;;;1.00;1.00;;;22.70;65.50;;;23.19;nan;100785.31;4992009;28;20633;-68
2023/06/28 00:12:14;;;;;;;1.20;1.20;;;22.60;65.60;;;23.11;nan;100792.38;4990550;28;21214;-67
2023/06/28 00:14:41;;;;;;;1.70;1.20;;;22.60;65.80;;;23.02;nan;100796.16;4992398;28;20598;-67
2023/06/28 00:17:08;;;;;;;1.57;1.00;;;22.50;66.00;;;22.96;nan;100791.59;4990665;28;20654;-67
2023/06/28 00:19:35;;;;;;;1.30;1.20;;;22.50;66.20;;;22.92;nan;100789.47;4986519;28;20819;-67
2023/06/28 00:22:03;;;;;;;0.93;0.93;;;22.40;66.50;;;22.88;nan;100799.69;4990242;28;20658;-68
2023/06/28 00:24:30;;;;;;;1.40;1.30;;;22.40;66.70;;;22.85;nan;100796.56;4983359;28;20632;-67
2023/06/28 00:26:57;;;;;;;1.20;1.20;;;22.30;67.40;;;22.82;nan;100792.44;4989639;28;20669;-67
2023/06/28 00:29:24;;;;;;;1.40;1.30;;;22.30;66.80;;;22.78;nan;100799.16;4984790;28;20605;-67
2023/06/28 00:31:51;;;;;;;1.00;1.00;;;22.30;66.70;;;22.75;nan;100801.34;5009833;28;20634;-68
2023/06/28 00:34:18;;;;;;;2.77;1.30;;;22.20;66.90;;;22.72;nan;100804.38;5011253;28;20609;-67
2023/06/28 00:36:45;;;;;;;1.07;1.07;;;22.20;67.10;;;22.68;nan;100803.09;5006119;28;20670;-67
2023/06/28 00:39:12;;;;;;;0.90;0.90;;;22.20;67.30;;;22.66;nan;100799.78;4984699;28;20696;-67
2023/06/28 00:41:39;;;;;;;1.57;1.50;;;22.10;67.40;;;22.62;nan;100809.97;4985555;28;20638;-68
2023/06/28 00:44:06;;;;;;;1.60;1.50;;;22.10;67.70;;;22.61;nan;100795.03;4990872;28;20650;-67
2023/06/28 00:46:35;;;;;;;1.03;0.90;;;22.10;67.90;;;22.61;nan;100799.50;4993005;28;20672;-67
2023/06/28 00:49:02;;;;;;;3.03;1.30;;;22.10;67.90;;;22.56;nan;100800.03;4993971;28;20615;-67
2023/06/28 00:51:31;;;;;;;1.13;1.13;;;22.00;68.40;;;22.53;nan;100800.38;4972638;28;20619;-67
2023/06/28 00:53:59;;;;;;;0.97;0.97;;;22.00;69.10;;;22.51;nan;100793.63;4969559;28;20916;-67
2023/06/28 00:56:26;;;;;;;1.03;1.03;;;22.00;68.90;;;22.47;nan;100801.13;4994455;28;20669;-67
2023/06/28 00:58:53;;;;;;;3.00;1.50;;;21.90;69.30;;;22.45;nan;100799.66;5009062;28;20650;-69
2023/06/28 01:01:21;;;;;;;1.17;1.17;;;21.90;69.40;;;22.38;nan;100804.91;4971738;28;20642;-67
2023/06/28 01:03:51;;;;;;;1.43;1.07;;;21.90;69.40;;;22.33;nan;100804.59;4985720;28;20673;-67
2023/06/28 01:06:21;;;;;;;1.17;1.00;;;21.80;69.40;;;22.27;nan;100805.34;4990193;28;20662;-68
2023/06/28 01:08:49;;;;;;;4.20;1.00;;;21.70;69.50;;;22.26;nan;100798.34;4987561;28;20739;-67
2023/06/28 01:11:17;;;;;;;2.17;1.50;;;21.80;69.80;;;22.24;nan;100801.19;4978500;28;20614;-68
2023/06/28 01:13:46;;;;;;;1.00;1.00;;;21.70;69.70;;;22.21;nan;100806.06;4988724;28;20629;-67
2023/06/28 01:16:13;;;;;;;1.33;1.23;;;21.70;69.70;;;22.18;nan;100801.94;4973541;28;20661;-67
2023/06/28 01:18:40;;;;;;;1.40;1.40;;;21.60;69.70;;;22.14;nan;100810.44;4994505;28;21009;-68
2023/06/28 01:21:10;;;;;;;1.10;1.10;;;21.60;70.00;;;22.12;nan;100815.13;4989380;28;20642;-67
2023/06/28 01:23:38;;;;;;;1.00;1.00;;;21.60;70.10;;;22.09;nan;100812.81;4981218;28;20677;-69
2023/06/28 01:26:05;;;;;;;0.90;0.90;;;21.60;70.40;;;22.07;nan;100809.50;4976128;28;20659;-67
2023/06/28 01:28:33;;;;;;;1.20;1.20;;;21.50;70.80;;;22.04;nan;100805.38;4994512;28;20687;-67
2023/06/28 01:31:00;;;;;;;1.30;1.30;;;21.50;70.90;;;22.03;nan;100808.22;4985980;28;20622;-68
2023/06/28 01:33:27;;;;;;;1.10;1.10;;;21.50;71.20;;;22.03;nan;100809.03;4994742;28;20633;-67
2023/06/28 01:35:58;;;;;;;1.53;1.27;;;21.50;71.20;;;21.96;nan;100808.09;4999319;28;20692;-67
2023/06/28 01:38:28;;;;;;;0.93;0.93;;;21.50;71.30;;;21.97;nan;100811.59;5006692;28;21064;-68
2023/06/28 01:40:57;;;;;;;1.20;1.20;;;21.40;71.40;;;21.96;nan;100812.59;4988684;28;20642;-67
2023/06/28 01:43:24;;;;;;;1.40;1.40;;;21.40;71.40;;;21.95;nan;100810.94;4973109;28;21238;-69
2023/06/28 01:45:52;;;;;;;1.43;1.33;;;21.40;71.30;;;21.97;nan;100808.94;4989505;28;20662;-67
2023/06/28 01:48:19;;;;;;;1.03;1.03;;;21.50;71.40;;;22.02;nan;100809.22;4991454;28;21648;-67
2023/06/28 01:50:46;;;;;;;2.70;1.30;;;21.50;71.50;;;22.04;nan;100804.56;4989826;28;20630;-68
2023/06/28 01:53:14;;;;;;;1.40;1.40;;;21.50;71.40;;;22.03;nan;100802.91;4996133;28;20725;-68
2023/06/28 01:55:41;;;;;;;2.60;1.50;;;21.50;71.50;;;22.03;nan;100809.03;4987293;28;20678;-67
2023/06/28 01:58:08;;;;;;;0.90;0.90;;;21.50;71.50;;;22.01;nan;100802.25;4983297;28;20622;-68
2023/06/28 02:00:35;;;;;;;2.07;1.33;;;21.50;71.60;;;21.98;nan;100797.28;4992638;28;20630;-67
2023/06/28 02:03:02;;;;;;;1.17;1.17;;;21.50;71.60;;;21.97;nan;100803.63;4990996;28;20665;-67
2023/06/28 02:05:29;;;;;;;0.97;0.97;;;21.50;71.90;;;21.95;nan;100792.34;4973084;28;20674;-68
2023/06/28 02:07:56;;;;;;;1.23;1.23;;;21.40;72.00;;;21.90;nan;100795.53;4990490;28;21212;-67
2023/06/28 02:10:24;;;;;;;1.00;1.00;;;21.40;72.40;;;21.88;nan;100792.25;4981592;28;20658;-67
2023/06/28 02:12:51;;;;;;;4.77;1.07;;;21.40;72.60;;;21.87;nan;100792.44;4989077;28;20639;-67
2023/06/28 02:15:18;;;;;;;1.13;1.10;;;21.40;72.80;;;21.85;nan;100794.44;4993388;28;20638;-67
2023/06/28 02:17:47;;;;;;;1.30;1.30;;;21.40;73.10;;;21.86;nan;100790.75;4988919;28;23351;-67
2023/06/28 02:20:14;;;;;;;7.90;1.70;;;21.30;73.30;;;21.84;nan;100792.78;4991660;28;20672;-68
2023/06/28 02:22:41;;;;;;;1.30;1.30;;;21.30;73.60;;;21.81;nan;100788.59;4979930;28;20649;-68
2023/06/28 02:25:08;;;;;;;1.50;1.40;;;21.30;73.90;;;21.83;nan;100796.44;4988794;28;20657;-67
2023/06/28 02:27:35;;;;;;;1.23;1.23;;;21.30;74.10;;;21.84;nan;100790.13;4988604;28;21224;-66
2023/06/28 02:30:03;;;;;;;1.40;1.30;;;21.30;74.00;;;21.82;nan;100790.31;4983105;28;20650;-67
2023/06/28 02:32:32;;;;;;;1.37;1.27;;;21.30;74.00;;;21.84;nan;100790.13;4983887;28;20634;-68
2023/06/28 02:34:59;;;;;;;1.37;1.37;;;21.30;74.20;;;21.82;nan;100792.09;4983945;28;20633;-66
2023/06/28 02:37:26;;;;;;;1.73;1.63;;;21.30;74.10;;;21.82;nan;100792.97;4982030;28;20654;-68
2023/06/28 02:39:53;;;;;;;1.30;1.10;;;21.30;74.00;;;21.84;nan;100795.44;4989967;28;20626;-67
2023/06/28 02:42:21;;;;;;;1.27;1.20;;;21.30;74.10;;;21.82;nan;100797.41;4980718;28;22429;-67
2023/06/28 02:44:48;;;;;;;1.50;1.20;;;21.30;74.30;;;21.80;nan;100796.75;4993825;28;20630;-68
2023/06/28 02:47:15;;;;;;;1.20;1.20;;;21.30;74.30;;;21.77;nan;100797.94;4989809;28;20692;-67
2023/06/28 02:49:42;;;;;;;2.00;1.90;;;21.30;74.50;;;21.75;nan;100807.09;4988579;28;20642;-69
2023/06/28 02:52:09;;;;;;;1.20;1.10;;;21.20;74.50;;;21.75;nan;100807.09;4990165;28;20999;-68
2023/06/28 02:54:37;;;;;;;1.53;1.50;;;21.20;74.80;;;21.75;nan;100804.44;4988545;28;20646;-67
2023/06/28 02:57:08;;;;;;;3.03;1.03;;;21.30;74.90;;;21.75;nan;100809.75;4991232;28;20680;-68
2023/06/28 02:59:35;;;;;;;8.03;1.27;;;21.20;75.00;;;21.77;nan;100799.75;4995224;28;21202;-66
2023/06/28 03:02:04;;;;;;;1.70;1.07;;;21.30;75.10;;;21.74;nan;100802.78;4986142;28;20639;-68
2023/06/28 03:04:32;;;;;;;1.73;1.00;;;21.20;75.00;;;21.69;nan;100805.97;4991074;28;20674;-67
2023/06/28 03:06:59;;;;;;;1.13;1.13;;;21.20;75.10;;;21.66;nan;100814.28;4992959;28;21393;-67
2023/06/28 03:09:26;;;;;;;1.17;1.17;;;21.10;75.20;;;21.62;nan;100808.50;4992963;28;20638;-67
2023/06/28 03:11:54;;;;;;;1.33;1.33;;;21.20;75.60;;;21.58;nan;100811.69;4990885;28;20626;-67
2023/06/28 03:14:21;;;;;;;1.40;1.40;;;21.10;75.70;;;21.55;nan;100815.53;4996597;28;20702;-68
2023/06/28 03:16:48;;;;;;;1.70;1.60;;;21.10;76.10;;;21.53;nan;100811.38;4988261;28;20705;-67
2023/06/28 03:19:15;;;;;;;1.53;1.20;;;21.10;76.40;;;21.51;nan;100810.75;4996840;28;20618;-67
2023/06/28 03:21:42;;;;;;;1.43;1.40;;;21.00;76.60;;;21.47;nan;100809.44;4992875;28;20621;-67
2023/06/28 03:24:08;;;;;;;1.03;1.03;;;21.00;76.90;;;21.40;nan;100811.97;4998042;28;20700;-67
2023/06/28 03:26:35;;;;;;;1.07;1.07;;;20.90;77.30;;;21.34;nan;100815.34;4992758;28;20685;-67
2023/06/28 03:29:02;;;;;;;1.07;1.07;;;20.90;77.50;;;21.29;nan;100811.56;4989036;28;20609;-68
2023/06/28 03:31:31;;;;;;;1.10;1.10;;;20.80;77.80;;;21.24;nan;100812.09;4995315;28;20645;-67
2023/06/28 03:33:58;;;;;;;1.27;1.27;;;20.80;78.20;;;21.17;nan;100811.13;4995971;28;20700;-68
2023/06/28 03:36:27;;;;;;;1.50;1.40;;;20.70;78.60;;;21.15;nan;100806.97;4985439;28;20684;-67
2023/06/28 03:38:54;;;;;;;1.17;1.17;;;20.70;78.90;;;21.10;nan;100812.00;4996017;28;20628;-69
2023/06/28 03:41:21;;;;;;;2.10;1.03;;;20.60;78.70;;;21.03;nan;100808.38;4993200;28;20630;-67
2023/06/28 03:43:48;;;;;;;1.60;1.50;;;20.60;79.90;;;21.02;nan;100812.81;4988621;28;21045;-68
2023/06/28 03:46:15;;;;;;;1.43;1.40;;;20.50;80.30;;;21.00;nan;100808.72;4992472;28;21249;-67
2023/06/28 03:48:42;;;;;;;1.90;1.80;;;20.50;80.70;;;20.99;nan;100810.53;4997799;28;20645;-67
2023/06/28 03:51:09;;;;;;;1.67;1.60;;;20.50;81.10;;;21.02;nan;100817.31;5015407;28;20709;-68
2023/06/28 03:53:36;;;;;;;1.90;1.60;;;20.60;81.50;;;21.07;nan;100815.81;5002370;28;20650;-68
2023/06/28 03:56:06;;;;;;;1.90;1.80;;;20.60;81.60;;;21.10;nan;100815.50;4995789;28;20673;-69
2023/06/28 03:58:32;;;;;;;2.20;1.50;;;20.60;81.70;;;21.12;nan;100813.50;4997249;28;20814;-68
2023/06/28 04:01:02;;;;;;;1.70;1.60;;;20.70;81.90;;;21.14;nan;100816.78;4996513;28;21007;-67
2023/06/28 04:03:29;;;;;;;1.37;1.37;;;20.60;82.10;;;21.14;nan;100815.97;4998814;28;20721;-68
2023/06/28 04:05:57;;;;;;;1.40;1.40;;;20.70;82.30;;;21.14;nan;100816.78;4997401;28;20684;-67
2023/06/28 04:08:26;;;;;;;1.40;1.40;;;20.70;82.60;;;21.15;nan;100818.44;4996858;28;21011;-67
2023/06/28 04:10:54;;;;;;;3.03;1.50;;;20.70;82.60;;;21.17;nan;100821.72;4978924;28;20622;-67
2023/06/28 04:13:21;;;;;;;1.43;1.40;;;20.70;82.70;;;21.17;nan;100826.25;4997868;28;21164;-67
2023/06/28 04:15:50;;;;;;;1.47;1.37;;;20.70;82.90;;;21.17;nan;100821.72;4996365;28;20672;-67
2023/06/28 04:18:17;;;;;;;2.17;1.50;;;20.70;83.00;;;21.20;nan;100828.53;4997577;28;20587;-68
2023/06/28 04:20:44;;;;;;;1.83;1.43;;;20.70;83.30;;;21.19;nan;100819.72;4995787;28;20642;-67
2023/06/28 04:23:12;;;;;;;1.53;1.43;;;20.70;83.40;;;21.22;nan;100824.69;4979699;28;20665;-69
2023/06/28 04:25:39;;;;;;;1.60;1.43;;;20.70;83.50;;;21.22;nan;100821.22;4997829;28;20661;-68
2023/06/28 04:28:09;;;;;;;2.53;1.50;;;20.70;83.50;;;21.24;nan;100828.00;4996817;28;20635;-68
2023/06/28 04:30:39;;;;;;;1.80;1.70;;;20.80;83.70;;;21.25;nan;100832.28;4994665;28;21070;-67
2023/06/28 04:33:07;;;;;;;2.40;2.20;;;20.80;83.60;;;21.29;nan;100830.97;4998039;28;21130;-66
2023/06/28 04:35:34;;;;;;;1.70;1.60;;;20.80;83.60;;;21.33;nan;100829.63;4996554;28;21305;-68
2023/06/28 04:38:04;;;;;;;1.80;1.70;;;20.80;83.40;;;21.36;nan;100829.25;4979881;28;20729;-68
2023/06/28 04:40:33;;;;;;;2.30;2.10;;;20.80;83.30;;;21.36;nan;100831.09;4981014;28;20674;-68
2023/06/28 04:43:00;;;;;;;2.57;1.67;;;20.80;83.20;;;21.36;nan;100831.91;4995100;28;21229;-68
2023/06/28 04:45:36;;;;;;;1.80;1.70;;;20.90;83.90;;;21.34;nan;100825.94;4996405;28;20673;-68
2023/06/28 04:48:08;;;;;;;1.50;1.50;;;20.90;84.30;;;21.33;nan;100831.44;5000210;28;20975;-68
2023/06/28 04:50:37;;;;;;;1.30;1.30;;;20.90;84.30;;;21.32;nan;100833.25;4983327;28;20607;-68
2023/06/28 04:53:05;;;;;;;2.03;1.40;;;20.80;84.60;;;21.29;nan;100830.97;4976217;28;20622;-68
2023/06/28 04:55:34;;;;;;;1.57;1.47;;;20.80;84.60;;;21.27;nan;100838.28;4994534;28;20666;-67
2023/06/28 04:58:10;;;;;;;1.30;1.20;;;20.80;84.90;;;21.24;nan;100843.94;4993141;28;20645;-67
2023/06/28 05:00:37;;;;;;;1.53;1.43;;;20.80;85.10;;;21.27;nan;100838.28;4990695;28;20630;-67
2023/06/28 05:03:05;;;;;;;1.13;1.13;;;20.80;85.30;;;21.28;nan;100845.22;4993480;28;20699;-68
2023/06/28 05:05:32;;;;;;;1.27;1.27;;;20.80;85.30;;;21.27;nan;100832.97;4997269;28;20658;-67
2023/06/28 05:07:59;;;;;;;2.80;1.20;;;20.80;85.30;;;21.26;nan;100833.97;4991401;28;20661;-68
2023/06/28 05:10:27;;;;;;;1.43;1.43;;;20.80;85.40;;;21.28;nan;100833.78;4991237;28;21170;-69
2023/06/28 05:12:55;;;;;;;1.10;1.10;;;20.80;85.30;;;21.27;nan;100832.97;4986841;28;20669;-69
2023/06/28 05:15:22;;;;;;;1.13;1.13;;;20.80;85.40;;;21.28;nan;100839.09;4988909;28;20669;-67
2023/06/28 05:17:49;;;;;;;1.40;1.33;;;20.80;85.20;;;21.28;nan;100834.63;4991116;28;20641;-67
2023/06/28 05:20:16;;;;;;;1.30;1.30;;;20.80;85.60;;;21.30;nan;100831.78;4997570;28;20654;-67
2023/06/28 05:22:50;;;;;;;1.60;1.53;;;20.80;85.60;;;21.31;nan;100836.09;4999872;28;20646;-68
2023/06/28 05:25:17;;;;;;;9.43;1.43;;;20.80;85.10;;;21.32;nan;100833.25;4995265;28;20655;-67
2023/06/28 05:27:44;;;;;;;1.53;1.53;;;20.80;84.80;;;21.36;nan;100831.09;4989958;28;20642;-67
2023/06/28 05:30:11;;;;;;;1.63;1.50;;;20.90;84.90;;;21.37;nan;100822.97;5001880;28;20641;-68
2023/06/28 05:32:39;;;;;;;1.20;1.20;;;20.90;85.20;;;21.40;nan;100833.22;5002438;28;20679;-67
2023/06/28 05:35:06;;;;;;;1.10;1.10;;;20.90;85.00;;;21.44;nan;100825.75;4969374;28;20630;-67
2023/06/28 05:37:33;;;;;;;1.57;1.50;;;21.00;85.00;;;21.51;nan;100831.97;4984284;28;20658;-68
2023/06/28 05:40:00;;;;;;;1.33;1.23;;;21.00;84.90;;;21.55;nan;100828.81;4985401;28;20650;-67
2023/06/28 05:42:27;;;;;;;2.03;1.70;;;21.10;84.80;;;21.56;nan;100833.13;4983406;28;20657;-68
2023/06/28 05:44:54;;;;;;;1.40;1.30;;;21.10;84.90;;;21.61;nan;100833.41;4991115;28;20649;-67
2023/06/28 05:47:21;;;;;;;1.40;1.40;;;21.10;84.80;;;21.70;nan;100834.16;4988695;28;20654;-70
2023/06/28 05:49:49;;;;;;;1.37;1.37;;;21.20;84.60;;;21.75;nan;100831.00;4979506;28;20638;-67
2023/06/28 05:52:16;;;;;;;3.13;1.70;;;21.20;84.50;;;21.77;nan;100829.81;4983845;28;21244;-66
2023/06/28 05:54:43;;;;;;;1.63;1.50;;;21.30;84.30;;;21.78;nan;100836.78;4981673;28;20700;-67
2023/06/28 05:57:10;;;;;;;3.07;1.83;;;21.30;84.10;;;21.75;nan;100837.13;4981492;28;21250;-67
2023/06/28 05:59:38;;;;;;;1.80;1.70;;;21.30;84.20;;;21.77;nan;100836.94;4983001;28;21006;-65
2023/06/28 06:02:05;;;;;;;5.70;1.43;;;21.20;84.00;;;21.85;nan;100847.56;4993827;28;20653;-65
2023/06/28 06:04:33;;;;;;;3.63;1.50;;;21.30;84.30;;;21.91;nan;100837.06;4988367;28;20670;-65
2023/06/28 06:07:00;;;;;;;3.27;1.37;;;21.40;84.00;;;21.94;nan;100846.47;4990806;28;20646;-66
2023/06/28 06:09:29;;;;;;;1.47;1.40;;;21.40;83.40;;;21.87;nan;100841.03;4989564;28;20634;-65
2023/06/28 06:11:56;;;;;;;3.23;1.57;;;21.40;83.30;;;21.84;nan;100836.09;4987338;28;20630;-66
2023/06/28 06:14:23;;;;;;;2.10;1.90;;;21.30;83.60;;;21.87;nan;100834.94;4985456;28;20620;-65
2023/06/28 06:16:50;;;;;;;1.63;1.53;;;21.40;84.20;;;21.86;nan;100839.41;4989120;28;20666;-66
2023/06/28 06:19:17;;;;;;;1.83;1.73;;;21.40;84.50;;;21.87;nan;100840.25;4996676;28;20638;-70
2023/06/28 06:21:44;;;;;;;1.60;1.50;;;21.40;84.90;;;21.92;nan;100843.16;5002178;28;20612;-65
2023/06/28 06:24:11;;;;;;;1.63;1.23;;;21.40;85.00;;;21.96;nan;100842.66;5008158;28;21020;-64
2023/06/28 06:26:38;;;;;;;2.50;2.30;;;21.40;85.00;;;21.95;nan;100854.28;5002285;28;20664;-65
2023/06/28 06:29:05;;;;;;;1.67;1.57;;;21.50;84.80;;;21.99;nan;100849.44;4984245;28;20666;-67
2023/06/28 06:31:32;;;;;;;2.60;1.50;;;21.50;84.50;;;22.04;nan;100844.41;4983303;28;20615;-66
2023/06/28 06:34:02;;;;;;;2.90;1.53;;;21.50;84.50;;;22.07;nan;100846.69;4983764;28;20654;-66
2023/06/28 06:36:29;;;;;;;2.33;2.00;;;21.60;84.20;;;22.12;nan;100849.66;4986163;28;20662;-65
2023/06/28 06:38:57;;;;;;;1.70;1.63;;;21.60;84.00;;;22.24;nan;100848.22;4985731;28;20704;-66
2023/06/28 06:41:24;;;;;;;1.33;1.33;;;21.70;83.70;;;22.33;nan;100855.13;4992588;28;20649;-64
2023/06/28 06:43:51;;;;;;;1.30;1.30;;;21.80;83.40;;;22.40;nan;100862.16;4989385;28;20674;-66
2023/06/28 06:46:20;;;;;;;1.00;1.00;;;21.90;83.00;;;22.44;nan;100862.66;4996045;28;20658;-69
2023/06/28 06:48:47;;;;;;;2.97;1.80;;;21.90;82.80;;;22.37;nan;100864.38;4995532;28;20641;-64
2023/06/28 06:51:15;;;;;;;4.37;1.70;;;21.90;82.60;;;22.33;nan;100873.72;4993758;28;20641;-69
2023/06/28 06:53:42;;;;;;;3.90;1.90;;;21.90;82.40;;;22.30;nan;100866.94;4993306;28;20618;-66
2023/06/28 06:56:09;;;;;;;2.50;1.60;;;21.80;82.30;;;22.32;nan;100867.56;4997289;28;21050;-65
2023/06/28 06:58:36;;;;;;;1.23;1.20;;;21.90;82.10;;;22.32;nan;100862.25;5001145;28;20629;-64
2023/06/28 07:01:03;;;;;;;0.90;0.90;;;21.90;82.20;;;22.27;nan;100866.47;4995908;28;20637;-66
2023/06/28 07:03:31;;;;;;;9.97;1.30;;;21.90;82.10;;;22.31;nan;100867.75;5002225;28;20708;-65
2023/06/28 07:05:59;;;;;;;3.80;3.10;;;21.80;82.40;;;22.37;nan;100865.22;4998542;28;20658;-64
2023/06/28 07:08:26;;;;;;;1.90;1.80;;;21.80;81.90;;;22.44;nan;100872.47;4992506;28;20649;-65
2023/06/28 07:10:53;;;;;;;1.10;1.10;;;21.90;81.40;;;22.50;nan;100867.25;4974449;28;20641;-71
2023/06/28 07:13:20;;;;;;;1.70;1.70;;;22.00;81.00;;;22.47;nan;100870.25;4996796;28;21008;-65
2023/06/28 07:15:47;;;;;;;1.37;1.37;;;22.00;80.60;;;22.55;nan;100872.84;4988321;28;20674;-65
2023/06/28 07:18:15;;;;;;;1.77;1.67;;;22.00;80.70;;;22.64;nan;100868.28;5004167;28;20618;-66
2023/06/28 07:20:43;;;;;;;1.53;1.20;;;22.10;80.30;;;22.74;nan;100869.69;4991600;28;20711;-65
2023/06/28 07:23:10;;;;;;;7.10;1.70;;;22.20;80.10;;;22.83;nan;100865.91;4994305;28;20641;-67
2023/06/28 07:25:38;;;;;;;2.80;1.77;;;22.30;80.00;;;22.92;nan;100862.16;5001560;28;20678;-67
2023/06/28 07:28:06;;;;;;;1.60;1.50;;;22.40;79.50;;;23.05;nan;100872.13;4997136;28;20637;-67
2023/06/28 07:30:55;;;;;;;1.67;1.37;;;22.50;79.20;;;23.17;nan;100877.84;4989759;28;20622;-68
2023/06/28 07:33:23;;;;;;;1.57;1.47;;;22.60;79.00;;;23.27;nan;100873.88;4979975;28;20637;-68
2023/06/28 07:35:51;;;;;;;1.10;1.10;;;22.70;78.60;;;23.25;nan;100877.72;4994747;28;20669;-68
2023/06/28 07:38:20;;;;;;;1.70;1.33;;;22.80;78.20;;;23.19;nan;100875.81;4978598;28;20649;-68
2023/06/28 07:40:48;;;;;;;1.57;1.33;;;22.70;78.40;;;23.23;nan;100879.75;4979448;28;20638;-67
2023/06/28 07:43:17;;;;;;;1.80;1.20;;;22.70;78.60;;;23.25;nan;100877.72;4997147;28;20640;-67
2023/06/28 07:45:45;;;;;;;1.63;1.53;;;22.70;78.20;;;23.25;nan;100872.41;4989740;28;20677;-67
2023/06/28 07:48:12;;;;;;;1.53;1.50;;;22.80;77.80;;;23.32;nan;100866.13;4993903;28;20642;-68
2023/06/28 07:50:39;;;;;;;1.87;1.77;;;22.80;77.90;;;23.54;nan;100870.53;4974681;28;20647;-66
2023/06/28 07:53:06;;;;;;;1.50;1.40;;;23.00;77.80;;;23.86;nan;100869.22;4980218;28;20985;-67
2023/06/28 07:55:33;;;;;;;1.60;1.50;;;23.30;76.90;;;24.14;nan;100871.94;5001349;28;20671;-67
2023/06/28 07:58:01;;;;;;;1.73;1.63;;;23.50;76.10;;;24.41;nan;100873.81;5000285;28;20621;-67
2023/06/28 08:00:30;;;;;;;3.60;1.40;;;23.80;75.40;;;24.67;nan;100877.50;4995842;28;20653;-66
2023/06/28 08:03:01;;;;;;;1.07;1.07;;;24.10;74.60;;;24.80;nan;100876.78;4994370;28;20617;-64
2023/06/28 08:05:29;;;;;;;4.20;1.40;;;24.20;73.80;;;24.85;nan;100863.69;4980957;28;20686;-66
2023/06/28 08:07:56;;;;;;;1.57;1.47;;;24.30;73.60;;;25.16;nan;100868.53;4991500;28;20641;-67
2023/06/28 08:10:25;;;;;;;1.80;1.70;;;24.60;73.60;;;25.54;nan;100876.91;4989637;28;20653;-64
2023/06/28 08:12:54;;;;;;;1.90;1.80;;;25.00;72.70;;;25.73;nan;100870.78;4986512;28;21061;-67
2023/06/28 08:15:21;;;;;;;1.30;1.20;;;25.20;71.90;;;25.65;nan;100869.16;4987722;28;21240;-65
2023/06/28 08:17:48;;;;;;;2.80;1.30;;;25.20;70.80;;;25.45;nan;100865.59;4990992;28;20626;-65
2023/06/28 08:20:17;;;;;;;2.40;1.67;;;25.00;70.90;;;25.30;nan;100865.72;4989221;28;20668;-66
2023/06/28 08:22:47;;;;;;;1.50;1.37;;;24.90;71.00;;;25.24;nan;100865.69;4990586;28;20625;-66
2023/06/28 08:25:14;;;;;;;1.67;1.50;;;24.80;71.30;;;25.23;nan;100862.22;4970914;28;20677;-65
2023/06/28 08:27:41;;;;;;;1.63;1.50;;;24.80;71.20;;;25.43;nan;100858.81;4989560;28;20641;-66
2023/06/28 08:30:08;;;;;;;1.50;1.40;;;24.90;71.20;;;25.51;nan;100862.13;4971087;28;20646;-66
2023/06/28 08:32:35;;;;;;;1.40;1.30;;;25.00;71.00;;;25.59;nan;100863.78;4990767;28;20618;-65
2023/06/28 08:35:07;;;;;;;1.80;1.70;;;25.10;70.90;;;25.77;nan;100862.16;4989619;28;20646;-66
2023/06/28 08:37:34;;;;;;;1.50;1.40;;;25.30;70.80;;;26.20;nan;100868.00;4991266;28;20650;-66
2023/06/28 08:40:04;;;;;;;2.67;2.10;;;25.60;70.10;;;26.51;nan;100859.34;4991290;28;20635;-65
2023/06/28 08:42:33;;;;;;;3.20;1.80;;;26.00;69.10;;;26.92;nan;100865.22;4989795;28;20650;-65
2023/06/28 08:45:03;;;;;;;1.90;1.80;;;26.30;68.40;;;27.33;nan;100867.53;4987930;28;20670;-65
2023/06/28 08:47:32;;;;;;;1.60;1.50;;;26.70;66.90;;;27.44;nan;100854.34;4992224;28;21231;-65
2023/06/28 08:49:59;;;;;;;1.27;1.27;;;26.90;65.30;;;27.80;nan;100861.75;4991697;28;20643;-66
2023/06/28 08:52:29;;;;;;;1.10;1.10;;;27.20;65.20;;;28.28;nan;100860.13;5003480;28;20626;-64
2023/06/28 08:54:57;;;;;;;1.97;1.87;;;27.70;65.00;;;28.99;nan;100863.16;4974113;28;21020;-64
2023/06/28 08:57:24;;;;;;;1.50;1.40;;;28.30;63.90;;;29.35;nan;100864.16;5005589;28;21139;-65
2023/06/28 08:59:52;;;;;;;1.97;1.07;;;28.70;62.40;;;29.32;nan;100853.91;4984567;28;20653;-67
2023/06/28 09:02:21;;;;;;;2.60;2.07;;;28.80;61.50;;;29.14;nan;100857.38;5003180;28;21026;-67
2023/06/28 09:04:50;;;;;;;3.43;2.50;;;28.70;61.50;;;28.91;nan;100865.31;4980611;28;21224;-64
2023/06/28 09:07:18;;;;;;;2.50;2.17;;;28.50;61.00;;;28.64;nan;100864.81;4993168;28;20672;-65
2023/06/28 09:09:48;;;;;;;2.23;2.13;;;28.20;61.70;;;28.52;nan;100863.00;4999568;28;20638;-67
2023/06/28 09:12:16;;;;;;;1.73;1.63;;;28.00;61.70;;;28.48;nan;100856.44;4995675;28;20642;-66
2023/06/28 09:14:43;;;;;;;1.70;1.60;;;28.00;61.50;;;28.36;nan;100851.84;4992020;28;20630;-67
2023/06/28 09:17:10;;;;;;;2.93;2.00;;;27.90;61.50;;;28.32;nan;100858.66;4991282;28;20868;-67
2023/06/28 09:19:38;;;;;;;2.20;2.10;;;27.80;61.20;;;28.18;nan;100856.31;4989240;28;21178;-68
2023/06/28 09:22:08;;;;;;;1.80;1.63;;;27.70;61.10;;;28.04;nan;100852.09;4994898;28;20649;-67
2023/06/28 09:24:36;;;;;;;2.40;2.03;;;27.60;61.30;;;28.11;nan;100842.16;4972740;28;20674;-66
2023/06/28 09:27:05;;;;;;;1.60;1.50;;;27.60;61.80;;;28.27;nan;100845.09;4990602;28;20668;-66
2023/06/28 09:29:32;;;;;;;2.00;1.67;;;27.70;61.80;;;28.37;nan;100849.94;4990542;28;20646;-68
2023/06/28 09:32:00;;;;;;;2.23;1.40;;;27.80;61.20;;;28.38;nan;100840.88;4999856;28;20637;-67
2023/06/28 09:34:27;;;;;;;1.30;1.30;;;27.80;60.30;;;28.34;nan;100839.66;4990090;28;20638;-67
2023/06/28 09:36:56;;;;;;;1.73;1.63;;;27.80;59.90;;;28.27;nan;100839.72;4977419;28;20678;-66
2023/06/28 09:39:27;;;;;;;1.80;1.70;;;27.80;59.70;;;28.39;nan;100834.44;4956896;28;20665;-66
2023/06/28 09:41:54;;;;;;;1.10;1.10;;;27.80;60.10;;;28.60;nan;100835.94;5000275;28;21409;-69
2023/06/28 09:44:30;;;;;;;1.30;1.30;;;28.00;60.00;;;28.67;nan;100832.13;4989191;28;21170;-67
2023/06/28 09:47:04;;;;;;;1.47;1.30;;;28.10;59.50;;;28.69;nan;100839.94;4975731;28;20658;-67
2023/06/28 09:49:33;;;;;;;2.80;1.40;;;28.20;59.80;;;28.42;nan;100831.31;4988708;28;21260;-67
2023/06/28 09:52:03;;;;;;;1.70;1.60;;;28.00;59.60;;;27.99;nan;100833.97;4981774;28;20645;-66
2023/06/28 09:54:44;;;;;;;1.10;1.10;;;27.70;60.20;;;27.86;nan;100835.91;4975593;28;20634;-67
2023/06/28 09:57:12;;;;;;;1.53;1.43;;;27.40;60.60;;;27.74;nan;100829.59;4988243;28;20658;-67
2023/06/28 09:59:40;;;;;;;4.20;1.10;;;27.20;60.50;;;27.62;nan;100832.97;4985977;28;20630;-67
2023/06/28 10:02:08;;;;;;;1.40;1.30;;;27.10;60.70;;;27.59;nan;100836.09;4989659;28;21193;-66
2023/06/28 10:04:37;;;;;;;2.10;1.77;;;27.00;61.10;;;27.63;nan;100831.13;4987618;28;20641;-67
2023/06/28 10:07:06;;;;;;;1.70;1.63;;;27.10;61.50;;;27.74;nan;100833.13;4989714;28;21244;-67
2023/06/28 10:09:39;;;;;;;1.30;1.30;;;27.10;61.60;;;27.85;nan;100842.31;4982913;28;20643;-67
2023/06/28 10:12:14;;;;;;;1.77;1.27;;;27.20;61.60;;;27.92;nan;100833.16;4994245;28;20637;-67
2023/06/28 10:14:49;;;;;;;1.63;1.53;;;27.40;60.70;;;27.87;nan;100835.72;4993762;28;20644;-65
2023/06/28 10:17:17;;;;;;;1.90;1.80;;;27.40;60.60;;;27.71;nan;100830.06;4972884;28;21314;-67
2023/06/28 10:19:44;;;;;;;1.70;1.60;;;27.20;61.20;;;27.81;nan;100831.22;4973322;28;20618;-67
2023/06/28 10:22:14;;;;;;;2.73;2.17;;;27.20;61.50;;;27.96;nan;100838.94;4972448;28;20653;-67
2023/06/28 10:24:42;;;;;;;1.70;1.57;;;27.40;61.70;;;28.04;nan;100828.78;4988974;28;20646;-67
2023/06/28 10:27:10;;;;;;;2.00;1.90;;;27.50;61.20;;;28.11;nan;100834.09;4990589;28;20662;-67
2023/06/28 10:29:39;;;;;;;1.70;1.60;;;27.60;60.80;;;28.19;nan;100839.19;4973541;28;20638;-67